sensor_id;sensor_type;location;lat;lon;timestamp;temperature;humidity
15937;DHT22;9163;48.818;8.976;2023-08-12T00:00:33;20.00;99.90
15937;DHT22;9163;48.818;8.976;2023-08-12T00:03:02;20.00;99.90
15937;DHT22;9163;48.818;8.976;2023-08-12T00:05:29;20.00;99.90
15937;DHT22;9163;48.818;8.976;2023-08-12T00:07:57;19.90;99.90
15937;DHT22;9163;48.818;8.976;2023-08-12T00:10:24;19.90;99.90
15937;DHT22;9163;48.818;8.976;2023-08-12T00:12:51;19.80;99.90
15937;DHT22;9163;48.818;8.976;2023-08-12T00:15:20;19.70;99.90
15937;DHT22;9163;48.818;8.976;2023-08-12T00:17:47;19.60;99.90
15937;DHT22;9163;48.818;8.976;2023-08-12T00:20:15;19.50;99.90
15937;DHT22;9163;48.818;8.976;2023-08-12T00:22:42;19.40;99.90
15937;DHT22;9163;48.818;8.976;2023-08-12T00:25:10;19.30;99.90
15937;DHT22;9163;48.818;8.976;2023-08-12T00:27:37;19.30;99.90
15937;DHT22;9163;48.818;8.976;2023-08-12T00:30:06;19.10;99.90
15937;DHT22;9163;48.818;8.976;2023-08-12T00:32:34;18.90;99.90
15937;DHT22;9163;48.818;8.976;2023-08-12T00:35:02;19.00;99.90
15937;DHT22;9163;48.818;8.976;2023-08-12T00:37:30;19.00;99.90
15937;DHT22;9163;48.818;8.976;2023-08-12T00:39:57;19.00;99.90
15937;DHT22;9163;48.818;8.976;2023-08-12T00:42:24;19.10;99.90
15937;DHT22;9163;48.818;8.976;2023-08-12T00:44:51;19.10;99.90
15937;DHT22;9163;48.818;8.976;2023-08-12T00:47:19;19.20;99.90
15937;DHT22;9163;48.818;8.976;2023-08-12T00:49:48;19.20;99.90
15937;DHT22;9163;48.818;8.976;2023-08-12T00:52:17;19.30;99.90
15937;DHT22;9163;48.818;8.976;2023-08-12T00:54:45;19.30;99.90
15937;DHT22;9163;48.818;8.976;2023-08-12T00:57:12;19.30;99.90
15937;DHT22;9163;48.818;8.976;2023-08-12T00:59:41;19.40;99.90
15937;DHT22;9163;48.818;8.976;2023-08-12T01:02:11;19.30;99.90
15937;DHT22;9163;48.818;8.976;2023-08-12T01:04:38;19.30;99.90
15937;DHT22;9163;48.818;8.976;2023-08-12T01:07:07;19.40;99.90
15937;DHT22;9163;48.818;8.976;2023-08-12T01:09:34;19.40;99.90
15937;DHT22;9163;48.818;8.976;2023-08-12T01:12:06;19.40;99.90
15937;DHT22;9163;48.818;8.976;2023-08-12T01:14:45;19.50;99.90
15937;DHT22;9163;48.818;8.976;2023-08-12T01:17:14;19.50;99.90
15937;DHT22;9163;48.818;8.976;2023-08-12T01:19:42;19.50;99.90
15937;DHT22;9163;48.818;8.976;2023-08-12T01:22:12;19.50;99.90
15937;DHT22;9163;48.818;8.976;2023-08-12T01:24:42;19.50;99.90
15937;DHT22;9163;48.818;8.976;2023-08-12T01:27:11;19.50;99.90
15937;DHT22;9163;48.818;8.976;2023-08-12T01:29:40;19.50;99.90
15937;DHT22;9163;48.818;8.976;2023-08-12T01:32:12;19.50;99.90
15937;DHT22;9163;48.818;8.976;2023-08-12T01:34:47;19.50;99.90
15937;DHT22;9163;48.818;8.976;2023-08-12T01:37:20;19.40;99.90
15937;DHT22;9163;48.818;8.976;2023-08-12T01:39:52;19.30;99.90
15937;DHT22;9163;48.818;8.976;2023-08-12T01:42:21;19.30;99.90
15937;DHT22;9163;48.818;8.976;2023-08-12T01:44:50;19.30;99.90
15937;DHT22;9163;48.818;8.976;2023-08-12T01:47:17;19.30;99.90
15937;DHT22;9163;48.818;8.976;2023-08-12T01:49:44;19.20;99.90
15937;DHT22;9163;48.818;8.976;2023-08-12T01:52:11;19.20;99.90
15937;DHT22;9163;48.818;8.976;2023-08-12T01:54:39;19.30;99.90
15937;DHT22;9163;48.818;8.976;2023-08-12T01:57:07;19.30;99.90
15937;DHT22;9163;48.818;8.976;2023-08-12T01:59:35;19.30;99.90
15937;DHT22;9163;48.818;8.976;2023-08-12T02:02:03;19.40;99.90
15937;DHT22;9163;48.818;8.976;2023-08-12T02:04:30;19.40;99.90
15937;DHT22;9163;48.818;8.976;2023-08-12T02:06:58;19.40;99.90
15937;DHT22;9163;48.818;8.976;2023-08-12T02:09:25;19.40;99.90
15937;DHT22;9163;48.818;8.976;2023-08-12T02:11:52;19.40;99.90
15937;DHT22;9163;48.818;8.976;2023-08-12T02:14:21;19.30;99.90
15937;DHT22;9163;48.818;8.976;2023-08-12T02:16:48;19.40;99.90
15937;DHT22;9163;48.818;8.976;2023-08-12T02:19:15;19.30;99.90
15937;DHT22;9163;48.818;8.976;2023-08-12T02:21:42;19.30;99.90
15937;DHT22;9163;48.818;8.976;2023-08-12T02:24:10;19.30;99.90
15937;DHT22;9163;48.818;8.976;2023-08-12T02:26:37;19.30;99.90
15937;DHT22;9163;48.818;8.976;2023-08-12T02:29:05;19.30;99.90
15937;DHT22;9163;48.818;8.976;2023-08-12T02:31:33;19.30;99.90
15937;DHT22;9163;48.818;8.976;2023-08-12T02:34:00;19.30;99.90
15937;DHT22;9163;48.818;8.976;2023-08-12T02:36:28;19.20;99.90
15937;DHT22;9163;48.818;8.976;2023-08-12T02:38:55;19.10;99.90
15937;DHT22;9163;48.818;8.976;2023-08-12T02:41:23;19.10;99.90
15937;DHT22;9163;48.818;8.976;2023-08-12T02:43:50;19.10;99.90
15937;DHT22;9163;48.818;8.976;2023-08-12T02:46:17;19.10;99.90
15937;DHT22;9163;48.818;8.976;2023-08-12T02:48:46;19.10;99.90
15937;DHT22;9163;48.818;8.976;2023-08-12T02:51:14;19.00;99.90
15937;DHT22;9163;48.818;8.976;2023-08-12T02:53:41;19.00;99.90
15937;DHT22;9163;48.818;8.976;2023-08-12T02:56:08;19.00;99.90
15937;DHT22;9163;48.818;8.976;2023-08-12T02:58:36;19.00;99.90
15937;DHT22;9163;48.818;8.976;2023-08-12T03:01:03;19.00;99.90
15937;DHT22;9163;48.818;8.976;2023-08-12T03:03:31;18.80;99.90
15937;DHT22;9163;48.818;8.976;2023-08-12T03:05:59;18.80;99.90
15937;DHT22;9163;48.818;8.976;2023-08-12T03:08:26;18.70;99.90
15937;DHT22;9163;48.818;8.976;2023-08-12T03:10:58;18.80;99.90
15937;DHT22;9163;48.818;8.976;2023-08-12T03:13:26;18.80;99.90
15937;DHT22;9163;48.818;8.976;2023-08-12T03:15:53;19.00;99.90
15937;DHT22;9163;48.818;8.976;2023-08-12T03:18:20;19.00;99.90
15937;DHT22;9163;48.818;8.976;2023-08-12T03:20:48;19.00;99.90
15937;DHT22;9163;48.818;8.976;2023-08-12T03:23:16;19.00;99.90
15937;DHT22;9163;48.818;8.976;2023-08-12T03:25:44;18.90;99.90
15937;DHT22;9163;48.818;8.976;2023-08-12T03:28:11;19.00;99.90
15937;DHT22;9163;48.818;8.976;2023-08-12T03:30:38;19.00;99.90
15937;DHT22;9163;48.818;8.976;2023-08-12T03:33:05;18.90;99.90
15937;DHT22;9163;48.818;8.976;2023-08-12T03:35:32;18.80;99.90
15937;DHT22;9163;48.818;8.976;2023-08-12T03:38:00;18.80;99.90
15937;DHT22;9163;48.818;8.976;2023-08-12T03:40:28;18.80;99.90
15937;DHT22;9163;48.818;8.976;2023-08-12T03:42:55;18.90;99.90
15937;DHT22;9163;48.818;8.976;2023-08-12T03:45:23;19.00;99.90
15937;DHT22;9163;48.818;8.976;2023-08-12T03:47:50;18.90;99.90
15937;DHT22;9163;48.818;8.976;2023-08-12T03:50:17;19.00;99.90
15937;DHT22;9163;48.818;8.976;2023-08-12T03:52:44;19.00;99.90
15937;DHT22;9163;48.818;8.976;2023-08-12T03:55:12;19.10;99.90
15937;DHT22;9163;48.818;8.976;2023-08-12T03:57:40;19.20;99.90
15937;DHT22;9163;48.818;8.976;2023-08-12T04:00:08;19.20;99.90
15937;DHT22;9163;48.818;8.976;2023-08-12T04:02:35;19.20;99.90
15937;DHT22;9163;48.818;8.976;2023-08-12T04:05:03;19.20;99.90
15937;DHT22;9163;48.818;8.976;2023-08-12T04:07:31;19.10;99.90
15937;DHT22;9163;48.818;8.976;2023-08-12T04:09:59;19.10;99.90
15937;DHT22;9163;48.818;8.976;2023-08-12T04:12:26;19.20;99.90
15937;DHT22;9163;48.818;8.976;2023-08-12T04:14:54;19.20;99.90
15937;DHT22;9163;48.818;8.976;2023-08-12T04:17:22;19.10;99.90
15937;DHT22;9163;48.818;8.976;2023-08-12T04:19:49;19.20;99.90
15937;DHT22;9163;48.818;8.976;2023-08-12T04:22:16;19.20;99.90
15937;DHT22;9163;48.818;8.976;2023-08-12T04:24:43;19.20;99.90
15937;DHT22;9163;48.818;8.976;2023-08-12T04:27:11;19.10;99.90
15937;DHT22;9163;48.818;8.976;2023-08-12T04:29:38;19.10;99.90
15937;DHT22;9163;48.818;8.976;2023-08-12T04:32:07;19.00;99.90
15937;DHT22;9163;48.818;8.976;2023-08-12T04:34:34;19.00;99.90
15937;DHT22;9163;48.818;8.976;2023-08-12T04:37:01;19.10;99.90
15937;DHT22;9163;48.818;8.976;2023-08-12T04:39:28;19.10;99.90
15937;DHT22;9163;48.818;8.976;2023-08-12T04:41:56;19.10;99.90
15937;DHT22;9163;48.818;8.976;2023-08-12T04:44:24;19.10;99.90
15937;DHT22;9163;48.818;8.976;2023-08-12T04:46:51;19.00;99.90
15937;DHT22;9163;48.818;8.976;2023-08-12T04:49:19;19.10;99.90
15937;DHT22;9163;48.818;8.976;2023-08-12T04:51:47;19.20;99.90
15937;DHT22;9163;48.818;8.976;2023-08-12T04:54:14;19.20;99.90
15937;DHT22;9163;48.818;8.976;2023-08-12T04:56:41;19.20;99.90
15937;DHT22;9163;48.818;8.976;2023-08-12T04:59:08;19.30;99.90
15937;DHT22;9163;48.818;8.976;2023-08-12T05:01:36;19.40;99.90
15937;DHT22;9163;48.818;8.976;2023-08-12T05:04:04;19.40;99.90
15937;DHT22;9163;48.818;8.976;2023-08-12T05:06:33;19.50;99.90
15937;DHT22;9163;48.818;8.976;2023-08-12T05:09:00;19.50;99.90
15937;DHT22;9163;48.818;8.976;2023-08-12T05:11:28;19.50;99.90
15937;DHT22;9163;48.818;8.976;2023-08-12T05:13:55;19.40;99.90
15937;DHT22;9163;48.818;8.976;2023-08-12T05:16:23;19.50;99.90
15937;DHT22;9163;48.818;8.976;2023-08-12T05:18:50;19.50;99.90
15937;DHT22;9163;48.818;8.976;2023-08-12T05:21:17;19.50;99.90
15937;DHT22;9163;48.818;8.976;2023-08-12T05:23:46;19.40;99.90
15937;DHT22;9163;48.818;8.976;2023-08-12T05:26:13;19.50;99.90
15937;DHT22;9163;48.818;8.976;2023-08-12T05:28:40;19.50;99.90
15937;DHT22;9163;48.818;8.976;2023-08-12T05:31:07;19.60;99.90
15937;DHT22;9163;48.818;8.976;2023-08-12T05:33:35;19.70;99.90
15937;DHT22;9163;48.818;8.976;2023-08-12T05:36:02;19.70;99.90
15937;DHT22;9163;48.818;8.976;2023-08-12T05:38:30;19.80;99.90
15937;DHT22;9163;48.818;8.976;2023-08-12T05:40:58;19.80;99.90
15937;DHT22;9163;48.818;8.976;2023-08-12T05:43:25;19.80;99.90
15937;DHT22;9163;48.818;8.976;2023-08-12T05:45:53;19.80;99.90
15937;DHT22;9163;48.818;8.976;2023-08-12T05:48:20;19.70;99.90
15937;DHT22;9163;48.818;8.976;2023-08-12T05:50:47;19.70;99.90
15937;DHT22;9163;48.818;8.976;2023-08-12T05:53:14;19.80;99.90
15937;DHT22;9163;48.818;8.976;2023-08-12T05:55:41;20.00;99.90
15937;DHT22;9163;48.818;8.976;2023-08-12T05:58:10;20.10;99.90
15937;DHT22;9163;48.818;8.976;2023-08-12T06:00:37;20.10;99.90
15937;DHT22;9163;48.818;8.976;2023-08-12T06:03:04;20.10;99.90
15937;DHT22;9163;48.818;8.976;2023-08-12T06:05:32;20.20;99.90
15937;DHT22;9163;48.818;8.976;2023-08-12T06:07:59;20.20;99.90
15937;DHT22;9163;48.818;8.976;2023-08-12T06:10:26;20.20;99.90
15937;DHT22;9163;48.818;8.976;2023-08-12T06:12:53;20.20;99.90
15937;DHT22;9163;48.818;8.976;2023-08-12T06:15:22;20.20;99.90
15937;DHT22;9163;48.818;8.976;2023-08-12T06:17:49;20.40;99.90
15937;DHT22;9163;48.818;8.976;2023-08-12T06:20:16;20.50;99.90
15937;DHT22;9163;48.818;8.976;2023-08-12T06:22:44;20.50;99.90
15937;DHT22;9163;48.818;8.976;2023-08-12T06:25:11;20.50;99.90
15937;DHT22;9163;48.818;8.976;2023-08-12T06:27:38;20.70;99.90
15937;DHT22;9163;48.818;8.976;2023-08-12T06:30:06;20.70;99.90
15937;DHT22;9163;48.818;8.976;2023-08-12T06:32:35;20.90;99.90
15937;DHT22;9163;48.818;8.976;2023-08-12T06:35:03;21.10;99.90
15937;DHT22;9163;48.818;8.976;2023-08-12T06:37:31;21.00;99.90
15937;DHT22;9163;48.818;8.976;2023-08-12T06:39:58;21.10;99.90
15937;DHT22;9163;48.818;8.976;2023-08-12T06:42:25;21.40;99.90
15937;DHT22;9163;48.818;8.976;2023-08-12T06:44:54;21.40;99.90
15937;DHT22;9163;48.818;8.976;2023-08-12T06:47:21;21.50;99.90
15937;DHT22;9163;48.818;8.976;2023-08-12T06:49:50;21.60;99.90
15937;DHT22;9163;48.818;8.976;2023-08-12T06:52:18;21.80;99.90
15937;DHT22;9163;48.818;8.976;2023-08-12T06:54:45;22.10;99.90
15937;DHT22;9163;48.818;8.976;2023-08-12T06:57:12;22.30;99.90
15937;DHT22;9163;48.818;8.976;2023-08-12T06:59:39;22.60;99.90
15937;DHT22;9163;48.818;8.976;2023-08-12T07:02:07;22.90;99.90
15937;DHT22;9163;48.818;8.976;2023-08-12T07:04:34;22.90;99.90
15937;DHT22;9163;48.818;8.976;2023-08-12T07:07:03;23.00;99.90
15937;DHT22;9163;48.818;8.976;2023-08-12T07:09:30;23.00;99.90
15937;DHT22;9163;48.818;8.976;2023-08-12T07:11:57;23.00;99.90
15937;DHT22;9163;48.818;8.976;2023-08-12T07:14:24;23.00;99.90
15937;DHT22;9163;48.818;8.976;2023-08-12T07:16:51;23.50;99.90
15937;DHT22;9163;48.818;8.976;2023-08-12T07:19:19;23.80;99.90
15937;DHT22;9163;48.818;8.976;2023-08-12T07:21:46;24.20;99.90
15937;DHT22;9163;48.818;8.976;2023-08-12T07:24:15;24.50;99.90
15937;DHT22;9163;48.818;8.976;2023-08-12T07:26:42;24.50;97.20
15937;DHT22;9163;48.818;8.976;2023-08-12T07:29:09;24.60;91.80
15937;DHT22;9163;48.818;8.976;2023-08-12T07:31:36;24.70;88.90
15937;DHT22;9163;48.818;8.976;2023-08-12T07:34:04;25.00;99.90
15937;DHT22;9163;48.818;8.976;2023-08-12T07:36:31;25.20;85.90
15937;DHT22;9163;48.818;8.976;2023-08-12T07:38:58;25.40;63.90
15937;DHT22;9163;48.818;8.976;2023-08-12T07:41:27;25.70;50.50
15937;DHT22;9163;48.818;8.976;2023-08-12T07:43:54;26.00;39.30
15937;DHT22;9163;48.818;8.976;2023-08-12T07:46:21;26.30;23.50
15937;DHT22;9163;48.818;8.976;2023-08-12T07:48:49;26.50;20.00
15937;DHT22;9163;48.818;8.976;2023-08-12T07:51:16;26.20;9.50
15937;DHT22;9163;48.818;8.976;2023-08-12T07:53:43;26.40;12.60
15937;DHT22;9163;48.818;8.976;2023-08-12T07:56:11;26.30;12.60
15937;DHT22;9163;48.818;8.976;2023-08-12T07:58:39;26.40;9.60
15937;DHT22;9163;48.818;8.976;2023-08-12T08:01:06;26.60;10.00
15937;DHT22;9163;48.818;8.976;2023-08-12T08:03:35;26.90;5.00
15937;DHT22;9163;48.818;8.976;2023-08-12T08:06:02;27.10;3.70
15937;DHT22;9163;48.818;8.976;2023-08-12T08:08:29;27.10;1.30
15937;DHT22;9163;48.818;8.976;2023-08-12T08:10:57;26.60;1.00
15937;DHT22;9163;48.818;8.976;2023-08-12T08:13:24;26.60;8.00
15937;DHT22;9163;48.818;8.976;2023-08-12T08:15:52;26.60;1.10
15937;DHT22;9163;48.818;8.976;2023-08-12T08:18:20;27.00;1.00
15937;DHT22;9163;48.818;8.976;2023-08-12T08:20:47;27.00;1.00
15937;DHT22;9163;48.818;8.976;2023-08-12T08:23:14;27.10;1.00
15937;DHT22;9163;48.818;8.976;2023-08-12T08:25:41;27.50;1.00
15937;DHT22;9163;48.818;8.976;2023-08-12T08:28:09;28.00;1.00
15937;DHT22;9163;48.818;8.976;2023-08-12T08:30:36;27.90;1.00
15937;DHT22;9163;48.818;8.976;2023-08-12T08:33:05;28.30;1.00
15937;DHT22;9163;48.818;8.976;2023-08-12T08:35:33;28.20;1.00
15937;DHT22;9163;48.818;8.976;2023-08-12T08:38:00;28.60;1.00
15937;DHT22;9163;48.818;8.976;2023-08-12T08:40:27;28.70;1.00
15937;DHT22;9163;48.818;8.976;2023-08-12T08:42:56;29.00;1.00
15937;DHT22;9163;48.818;8.976;2023-08-12T08:45:25;28.80;1.00
15937;DHT22;9163;48.818;8.976;2023-08-12T08:47:52;29.20;1.00
15937;DHT22;9163;48.818;8.976;2023-08-12T08:50:22;29.20;1.00
15937;DHT22;9163;48.818;8.976;2023-08-12T08:52:50;29.70;1.00
15937;DHT22;9163;48.818;8.976;2023-08-12T08:55:18;29.60;1.00
15937;DHT22;9163;48.818;8.976;2023-08-12T08:57:46;29.90;1.00
15937;DHT22;9163;48.818;8.976;2023-08-12T09:00:14;29.60;1.00
15937;DHT22;9163;48.818;8.976;2023-08-12T09:02:43;29.70;1.00
15937;DHT22;9163;48.818;8.976;2023-08-12T09:05:11;29.80;1.00
15937;DHT22;9163;48.818;8.976;2023-08-12T09:07:41;29.40;1.00
15937;DHT22;9163;48.818;8.976;2023-08-12T09:10:10;29.60;1.00
15937;DHT22;9163;48.818;8.976;2023-08-12T09:12:38;30.40;1.00
15937;DHT22;9163;48.818;8.976;2023-08-12T09:15:05;30.80;1.00
15937;DHT22;9163;48.818;8.976;2023-08-12T09:17:33;30.60;1.00
15937;DHT22;9163;48.818;8.976;2023-08-12T09:20:00;31.40;1.00
15937;DHT22;9163;48.818;8.976;2023-08-12T09:22:29;31.80;1.00
15937;DHT22;9163;48.818;8.976;2023-08-12T09:24:58;32.30;1.00
15937;DHT22;9163;48.818;8.976;2023-08-12T09:27:25;32.50;1.00
15937;DHT22;9163;48.818;8.976;2023-08-12T09:29:56;32.80;1.00
15937;DHT22;9163;48.818;8.976;2023-08-12T09:32:23;32.60;1.00
15937;DHT22;9163;48.818;8.976;2023-08-12T09:34:52;33.20;1.00
15937;DHT22;9163;48.818;8.976;2023-08-12T09:37:21;33.70;1.00
15937;DHT22;9163;48.818;8.976;2023-08-12T09:39:50;33.10;1.00
15937;DHT22;9163;48.818;8.976;2023-08-12T09:42:19;32.00;1.00
15937;DHT22;9163;48.818;8.976;2023-08-12T09:44:46;32.00;1.00
15937;DHT22;9163;48.818;8.976;2023-08-12T09:47:14;32.10;1.00
15937;DHT22;9163;48.818;8.976;2023-08-12T09:49:41;31.80;1.00
15937;DHT22;9163;48.818;8.976;2023-08-12T09:52:09;31.10;1.00
15937;DHT22;9163;48.818;8.976;2023-08-12T09:54:36;30.60;1.00
15937;DHT22;9163;48.818;8.976;2023-08-12T09:57:04;30.40;1.00
15937;DHT22;9163;48.818;8.976;2023-08-12T09:59:35;30.40;1.00
15937;DHT22;9163;48.818;8.976;2023-08-12T10:02:03;30.40;1.00
15937;DHT22;9163;48.818;8.976;2023-08-12T10:04:37;30.20;1.00
15937;DHT22;9163;48.818;8.976;2023-08-12T10:07:05;29.90;1.00
15937;DHT22;9163;48.818;8.976;2023-08-12T10:09:33;29.60;1.00
15937;DHT22;9163;48.818;8.976;2023-08-12T10:12:02;29.50;1.00
15937;DHT22;9163;48.818;8.976;2023-08-12T10:14:30;29.60;1.00
15937;DHT22;9163;48.818;8.976;2023-08-12T10:16:58;29.60;1.00
15937;DHT22;9163;48.818;8.976;2023-08-12T10:19:26;29.30;1.00
15937;DHT22;9163;48.818;8.976;2023-08-12T10:21:55;29.10;1.00
15937;DHT22;9163;48.818;8.976;2023-08-12T10:24:23;29.60;1.00
15937;DHT22;9163;48.818;8.976;2023-08-12T10:26:51;29.90;1.00
15937;DHT22;9163;48.818;8.976;2023-08-12T10:29:19;30.30;1.00
15937;DHT22;9163;48.818;8.976;2023-08-12T10:31:48;30.40;1.00
15937;DHT22;9163;48.818;8.976;2023-08-12T10:34:20;31.10;1.00
15937;DHT22;9163;48.818;8.976;2023-08-12T10:36:48;30.90;1.00
15937;DHT22;9163;48.818;8.976;2023-08-12T10:39:24;30.70;1.00
15937;DHT22;9163;48.818;8.976;2023-08-12T10:41:54;30.50;1.00
15937;DHT22;9163;48.818;8.976;2023-08-12T10:44:25;30.40;1.00
15937;DHT22;9163;48.818;8.976;2023-08-12T10:46:53;30.80;1.00
15937;DHT22;9163;48.818;8.976;2023-08-12T10:49:22;30.70;1.00
15937;DHT22;9163;48.818;8.976;2023-08-12T10:51:51;31.30;1.00
15937;DHT22;9163;48.818;8.976;2023-08-12T10:54:22;31.50;1.00
15937;DHT22;9163;48.818;8.976;2023-08-12T10:57:09;31.70;1.00
15937;DHT22;9163;48.818;8.976;2023-08-12T10:59:52;31.80;1.00
15937;DHT22;9163;48.818;8.976;2023-08-12T11:02:22;31.90;1.00
15937;DHT22;9163;48.818;8.976;2023-08-12T11:04:52;31.70;1.00
15937;DHT22;9163;48.818;8.976;2023-08-12T11:07:20;31.40;1.00
15937;DHT22;9163;48.818;8.976;2023-08-12T11:09:51;31.00;1.00
15937;DHT22;9163;48.818;8.976;2023-08-12T11:12:31;30.70;1.00
15937;DHT22;9163;48.818;8.976;2023-08-12T11:15:00;30.60;1.00
15937;DHT22;9163;48.818;8.976;2023-08-12T11:17:32;30.60;1.00
15937;DHT22;9163;48.818;8.976;2023-08-12T11:20:03;30.90;1.00
15937;DHT22;9163;48.818;8.976;2023-08-12T11:22:35;31.20;1.00
15937;DHT22;9163;48.818;8.976;2023-08-12T11:25:04;31.70;1.00
15937;DHT22;9163;48.818;8.976;2023-08-12T11:27:42;32.20;1.00
15937;DHT22;9163;48.818;8.976;2023-08-12T11:30:11;32.20;1.00
15937;DHT22;9163;48.818;8.976;2023-08-12T11:32:41;32.10;1.00
15937;DHT22;9163;48.818;8.976;2023-08-12T11:35:11;31.80;1.00
15937;DHT22;9163;48.818;8.976;2023-08-12T11:37:40;31.60;1.00
15937;DHT22;9163;48.818;8.976;2023-08-12T11:40:08;30.50;1.00
15937;DHT22;9163;48.818;8.976;2023-08-12T11:42:36;30.90;1.00
15937;DHT22;9163;48.818;8.976;2023-08-12T11:45:05;31.10;1.00
15937;DHT22;9163;48.818;8.976;2023-08-12T11:47:33;30.60;1.00
15937;DHT22;9163;48.818;8.976;2023-08-12T11:50:02;30.00;1.00
15937;DHT22;9163;48.818;8.976;2023-08-12T11:52:31;29.40;1.00
15937;DHT22;9163;48.818;8.976;2023-08-12T11:54:59;29.00;1.00
15937;DHT22;9163;48.818;8.976;2023-08-12T11:57:26;28.50;1.00
15937;DHT22;9163;48.818;8.976;2023-08-12T11:59:58;28.30;15.90
15937;DHT22;9163;48.818;8.976;2023-08-12T12:02:26;28.40;42.60
15937;DHT22;9163;48.818;8.976;2023-08-12T12:05:07;28.10;65.30
15937;DHT22;9163;48.818;8.976;2023-08-12T12:07:36;27.80;63.90
15937;DHT22;9163;48.818;8.976;2023-08-12T12:10:05;27.30;93.20
15937;DHT22;9163;48.818;8.976;2023-08-12T12:12:33;27.10;99.90
15937;DHT22;9163;48.818;8.976;2023-08-12T12:15:01;27.10;99.90
15937;DHT22;9163;48.818;8.976;2023-08-12T12:17:28;26.70;99.90
15937;DHT22;9163;48.818;8.976;2023-08-12T12:19:57;26.50;99.90
15937;DHT22;9163;48.818;8.976;2023-08-12T12:22:28;26.10;99.90
15937;DHT22;9163;48.818;8.976;2023-08-12T12:24:59;25.70;99.90
15937;DHT22;9163;48.818;8.976;2023-08-12T12:27:27;25.40;99.90
15937;DHT22;9163;48.818;8.976;2023-08-12T12:29:54;25.30;99.90
15937;DHT22;9163;48.818;8.976;2023-08-12T12:32:21;25.20;99.90
15937;DHT22;9163;48.818;8.976;2023-08-12T12:34:49;25.30;99.90
15937;DHT22;9163;48.818;8.976;2023-08-12T12:37:17;25.10;99.90
15937;DHT22;9163;48.818;8.976;2023-08-12T12:39:44;24.60;99.90
15937;DHT22;9163;48.818;8.976;2023-08-12T12:42:13;24.70;99.90
15937;DHT22;9163;48.818;8.976;2023-08-12T12:44:40;24.70;99.90
15937;DHT22;9163;48.818;8.976;2023-08-12T12:47:07;24.80;99.90
15937;DHT22;9163;48.818;8.976;2023-08-12T12:49:36;24.70;99.90
15937;DHT22;9163;48.818;8.976;2023-08-12T12:52:04;25.00;99.90
15937;DHT22;9163;48.818;8.976;2023-08-12T12:54:31;25.10;99.90
15937;DHT22;9163;48.818;8.976;2023-08-12T12:56:58;24.90;99.90
15937;DHT22;9163;48.818;8.976;2023-08-12T12:59:28;25.00;99.90
15937;DHT22;9163;48.818;8.976;2023-08-12T13:01:55;24.90;99.90
15937;DHT22;9163;48.818;8.976;2023-08-12T13:04:23;24.80;99.90
15937;DHT22;9163;48.818;8.976;2023-08-12T13:06:50;24.80;99.90
15937;DHT22;9163;48.818;8.976;2023-08-12T13:09:17;24.60;99.90
15937;DHT22;9163;48.818;8.976;2023-08-12T13:11:44;24.60;99.90
15937;DHT22;9163;48.818;8.976;2023-08-12T13:14:12;24.90;99.90
15937;DHT22;9163;48.818;8.976;2023-08-12T13:16:40;25.00;99.90
15937;DHT22;9163;48.818;8.976;2023-08-12T13:19:07;25.20;99.90
15937;DHT22;9163;48.818;8.976;2023-08-12T13:21:35;25.20;99.90
15937;DHT22;9163;48.818;8.976;2023-08-12T13:24:02;25.30;99.90
15937;DHT22;9163;48.818;8.976;2023-08-12T13:26:30;25.20;99.90
15937;DHT22;9163;48.818;8.976;2023-08-12T13:28:57;25.20;99.90
15937;DHT22;9163;48.818;8.976;2023-08-12T13:31:24;25.30;99.90
15937;DHT22;9163;48.818;8.976;2023-08-12T13:33:53;25.70;99.90
15937;DHT22;9163;48.818;8.976;2023-08-12T13:36:20;26.30;99.90
15937;DHT22;9163;48.818;8.976;2023-08-12T13:38:48;26.60;99.90
15937;DHT22;9163;48.818;8.976;2023-08-12T13:41:15;27.20;99.90
15937;DHT22;9163;48.818;8.976;2023-08-12T13:43:42;27.10;94.70
15937;DHT22;9163;48.818;8.976;2023-08-12T13:46:10;27.10;90.10
15937;DHT22;9163;48.818;8.976;2023-08-12T13:48:37;27.10;99.90
15937;DHT22;9163;48.818;8.976;2023-08-12T13:51:06;27.10;97.10
15937;DHT22;9163;48.818;8.976;2023-08-12T13:53:33;26.90;89.10
15937;DHT22;9163;48.818;8.976;2023-08-12T13:56:00;27.10;88.30
15937;DHT22;9163;48.818;8.976;2023-08-12T13:58:27;27.00;64.60
15937;DHT22;9163;48.818;8.976;2023-08-12T14:00:55;27.30;92.60
15937;DHT22;9163;48.818;8.976;2023-08-12T14:03:22;27.50;90.70
15937;DHT22;9163;48.818;8.976;2023-08-12T14:05:49;27.60;65.20
15937;DHT22;9163;48.818;8.976;2023-08-12T14:08:18;27.60;63.30
15937;DHT22;9163;48.818;8.976;2023-08-12T14:10:45;27.20;67.00
15937;DHT22;9163;48.818;8.976;2023-08-12T14:13:13;27.10;87.90
15937;DHT22;9163;48.818;8.976;2023-08-12T14:15:40;27.10;99.90
15937;DHT22;9163;48.818;8.976;2023-08-12T14:18:08;27.40;99.90
15937;DHT22;9163;48.818;8.976;2023-08-12T14:20:35;27.50;95.90
15937;DHT22;9163;48.818;8.976;2023-08-12T14:23:03;27.50;99.90
15937;DHT22;9163;48.818;8.976;2023-08-12T14:25:31;27.70;88.40
15937;DHT22;9163;48.818;8.976;2023-08-12T14:27:59;27.30;87.80
15937;DHT22;9163;48.818;8.976;2023-08-12T14:30:26;27.30;89.40
15937;DHT22;9163;48.818;8.976;2023-08-12T14:32:53;26.90;99.50
15937;DHT22;9163;48.818;8.976;2023-08-12T14:35:20;26.80;98.20
15937;DHT22;9163;48.818;8.976;2023-08-12T14:37:48;27.30;99.50
15937;DHT22;9163;48.818;8.976;2023-08-12T14:40:15;27.60;90.10
15937;DHT22;9163;48.818;8.976;2023-08-12T14:42:43;27.90;91.70
15937;DHT22;9163;48.818;8.976;2023-08-12T14:45:11;27.90;54.60
15937;DHT22;9163;48.818;8.976;2023-08-12T14:47:38;27.90;51.30
15937;DHT22;9163;48.818;8.976;2023-08-12T14:50:06;27.80;62.30
15937;DHT22;9163;48.818;8.976;2023-08-12T14:52:34;27.60;67.10
15937;DHT22;9163;48.818;8.976;2023-08-12T14:55:02;27.50;64.10
15937;DHT22;9163;48.818;8.976;2023-08-12T14:57:29;27.30;65.10
15937;DHT22;9163;48.818;8.976;2023-08-12T14:59:58;27.10;78.40
15937;DHT22;9163;48.818;8.976;2023-08-12T15:02:25;26.90;89.00
15937;DHT22;9163;48.818;8.976;2023-08-12T15:04:53;26.70;72.30
15937;DHT22;9163;48.818;8.976;2023-08-12T15:07:20;26.50;95.10
15937;DHT22;9163;48.818;8.976;2023-08-12T15:09:48;26.40;95.80
15937;DHT22;9163;48.818;8.976;2023-08-12T15:12:17;26.30;99.90
15937;DHT22;9163;48.818;8.976;2023-08-12T15:14:44;26.20;99.90
15937;DHT22;9163;48.818;8.976;2023-08-12T15:17:12;26.10;94.80
15937;DHT22;9163;48.818;8.976;2023-08-12T15:19:40;26.20;98.50
15937;DHT22;9163;48.818;8.976;2023-08-12T15:22:07;26.10;99.90
15937;DHT22;9163;48.818;8.976;2023-08-12T15:24:34;26.10;99.90
15937;DHT22;9163;48.818;8.976;2023-08-12T15:27:01;26.20;99.90
15937;DHT22;9163;48.818;8.976;2023-08-12T15:29:29;26.00;99.90
15937;DHT22;9163;48.818;8.976;2023-08-12T15:31:57;26.00;99.90
15937;DHT22;9163;48.818;8.976;2023-08-12T15:34:26;26.00;99.90
15937;DHT22;9163;48.818;8.976;2023-08-12T15:36:53;25.90;99.90
15937;DHT22;9163;48.818;8.976;2023-08-12T15:39:20;25.80;99.90
15937;DHT22;9163;48.818;8.976;2023-08-12T15:41:48;25.70;99.90
15937;DHT22;9163;48.818;8.976;2023-08-12T15:44:15;25.70;99.90
15937;DHT22;9163;48.818;8.976;2023-08-12T15:46:42;25.60;99.90
15937;DHT22;9163;48.818;8.976;2023-08-12T15:49:10;25.30;99.90
15937;DHT22;9163;48.818;8.976;2023-08-12T15:51:39;25.20;99.90
15937;DHT22;9163;48.818;8.976;2023-08-12T15:54:06;25.20;99.90